Terminal Aerodrome Forecast
Issued by NWS

Home | Current Version | Previous Version | Text Only | Print | Product List | Glossary On
Versions: 1 2 3 4 5 6 7 8 9 10 11 12 13 14
000
FTUS41 KBTV 262320
TAFSLK
TAF
KSLK 262320Z 2700/2724 22005KT 2SM -SN BR OVC003
     FM270300 VRB03KT 2SM -SHSN BR OVC006
     FM270900 34004KT 6SM BR VCSH BKN006 OVC020
     FM271400 34006KT P6SM VCSH BKN020 OVC030=

USA.gov is the U.S. government's official web portal to all federal, state and local government web resources and services.